EXS64QW EGGP-LPFR
Flight info
| Callsign | EXS64QW |
|---|---|
| Flight time | 2h 39m |
| Altitude | 37000 |
| Route | REXAM N42 MIDJO P17 BEPHE DCT OSSEP DCT ELNIF DCT ZESPE DCT KLAKI DCT SALCO/N0449F370 DCT IBISU DCT BALDA DCT ABUPI DCT BIRBA DCT ALAGU |
| Aircraft | B738/M-SDE2E3FGHIRWXY/LB1 |
Departure
| Time | 2026-04-29 07:49 |
|---|---|
| Airport | Liverpool John Lennon Airport (EGGP) |
Arrival
| Time | 2026-04-29 10:28 |
|---|---|
| Airport | Faro - Gago Coutinho International Airport (LPFR) |
| Time | Latitude | Longitude | Altitude | Speed | Heading |
|---|---|---|---|---|---|
| 2026-04-29 07:19 | 53.33545 | -2.86087 | 84 ft | 0 kts | 175° |
| 2026-04-29 07:41 | 53.33552 | -2.86087 | 84 ft | 4 kts | 175° |
| 2026-04-29 07:41 | 53.33574 | -2.86091 | 89 ft | 4 kts | 171° |
| 2026-04-29 07:41 | 53.33590 | -2.86104 | 88 ft | 4 kts | 92° |
| 2026-04-29 07:41 | 53.33589 | -2.86145 | 86 ft | 4 kts | 85° |
| 2026-04-29 07:42 | 53.33588 | -2.86155 | 85 ft | 0 kts | 85° |
| 2026-04-29 07:44 | 53.33588 | -2.86154 | 85 ft | 1 kts | 85° |
| 2026-04-29 07:44 | 53.33590 | -2.86108 | 88 ft | 8 kts | 85° |
| 2026-04-29 07:44 | 53.33595 | -2.86003 | 88 ft | 9 kts | 97° |
| 2026-04-29 07:44 | 53.33549 | -2.85939 | 87 ft | 9 kts | 169° |
| 2026-04-29 07:45 | 53.33493 | -2.85945 | 86 ft | 5 kts | 223° |
| 2026-04-29 07:45 | 53.33482 | -2.86004 | 83 ft | 6 kts | 262° |
| 2026-04-29 07:45 | 53.33478 | -2.86068 | 83 ft | 6 kts | 265° |
| 2026-04-29 07:45 | 53.33475 | -2.86145 | 83 ft | 8 kts | 266° |
| 2026-04-29 07:46 | 53.33470 | -2.86244 | 83 ft | 9 kts | 266° |
| 2026-04-29 07:46 | 53.33465 | -2.86360 | 83 ft | 11 kts | 265° |
| 2026-04-29 07:46 | 53.33459 | -2.86488 | 82 ft | 12 kts | 265° |
| 2026-04-29 07:46 | 53.33447 | -2.86646 | 70 ft | 15 kts | 255° |
| 2026-04-29 07:47 | 53.33372 | -2.86732 | 76 ft | 14 kts | 175° |
| 2026-04-29 07:47 | 53.33306 | -2.86676 | 74 ft | 6 kts | 143° |
| 2026-04-29 07:47 | 53.33289 | -2.86622 | 73 ft | 6 kts | 92° |
| 2026-04-29 07:47 | 53.33290 | -2.86595 | 73 ft | 0 kts | 88° |
| 2026-04-29 07:48 | 53.33290 | -2.86582 | 74 ft | 4 kts | 88° |
| 2026-04-29 07:48 | 53.33309 | -2.86133 | 72 ft | 75 kts | 86° |
| 2026-04-29 07:48 | 53.33367 | -2.84897 | 66 ft | 136 kts | 85° |
| 2026-04-29 07:48 | 53.33458 | -2.83099 | 378 ft | 164 kts | 85° |
| 2026-04-29 07:49 | 53.33527 | -2.81115 | 1012 ft | 182 kts | 85° |
| 2026-04-29 07:49 | 53.33608 | -2.78881 | 1425 ft | 198 kts | 101° |
| 2026-04-29 07:49 | 53.32830 | -2.77018 | 2079 ft | 210 kts | 144° |
| 2026-04-29 07:49 | 53.31363 | -2.76607 | 2690 ft | 231 kts | 185° |
| 2026-04-29 07:50 | 53.29933 | -2.78011 | 3262 ft | 256 kts | 223° |
| 2026-04-29 07:50 | 53.28871 | -2.80368 | 3733 ft | 271 kts | 228° |
| 2026-04-29 07:50 | 53.27697 | -2.82862 | 4320 ft | 279 kts | 225° |
| 2026-04-29 07:50 | 53.26407 | -2.85315 | 5280 ft | 279 kts | 222° |
| 2026-04-29 07:51 | 53.25071 | -2.87609 | 6148 ft | 280 kts | 220° |
| 2026-04-29 07:51 | 53.23645 | -2.89909 | 6979 ft | 284 kts | 219° |
| 2026-04-29 07:51 | 53.22194 | -2.92188 | 7762 ft | 289 kts | 219° |
| 2026-04-29 07:51 | 53.20690 | -2.94447 | 8526 ft | 292 kts | 211° |
| 2026-04-29 07:52 | 53.18863 | -2.95607 | 9225 ft | 283 kts | 177° |
| 2026-04-29 07:52 | 53.16962 | -2.95089 | 10037 ft | 277 kts | 159° |
| 2026-04-29 07:52 | 53.15073 | -2.94280 | 10713 ft | 286 kts | 161° |
| 2026-04-29 07:52 | 53.13062 | -2.93463 | 10907 ft | 310 kts | 161° |
| 2026-04-29 07:53 | 53.10860 | -2.92589 | 11196 ft | 330 kts | 162° |
| 2026-04-29 07:53 | 53.08621 | -2.91720 | 11771 ft | 338 kts | 162° |
| 2026-04-29 07:53 | 53.06321 | -2.90840 | 12547 ft | 340 kts | 162° |
| 2026-04-29 07:53 | 53.03975 | -2.89949 | 13353 ft | 342 kts | 161° |
| 2026-04-29 07:54 | 53.01649 | -2.89066 | 14107 ft | 346 kts | 161° |
| 2026-04-29 07:54 | 52.99318 | -2.88181 | 14761 ft | 349 kts | 161° |
| 2026-04-29 07:54 | 52.96935 | -2.87276 | 15425 ft | 353 kts | 161° |
| 2026-04-29 07:54 | 52.94529 | -2.86363 | 16068 ft | 357 kts | 161° |
| 2026-04-29 07:55 | 52.92094 | -2.85440 | 16715 ft | 360 kts | 161° |
| 2026-04-29 07:55 | 52.89641 | -2.84512 | 17388 ft | 363 kts | 161° |
| 2026-04-29 07:55 | 52.87166 | -2.83577 | 18030 ft | 367 kts | 161° |
| 2026-04-29 07:55 | 52.84704 | -2.82647 | 18649 ft | 370 kts | 160° |
| 2026-04-29 07:56 | 52.82183 | -2.81695 | 19195 ft | 373 kts | 160° |
| 2026-04-29 07:56 | 52.79789 | -2.80797 | 19697 ft | 376 kts | 161° |
| 2026-04-29 07:56 | 52.77203 | -2.80005 | 20251 ft | 381 kts | 164° |
| 2026-04-29 07:56 | 52.74571 | -2.79313 | 20790 ft | 384 kts | 164° |
| 2026-04-29 07:57 | 52.71919 | -2.78616 | 21371 ft | 387 kts | 164° |
| 2026-04-29 07:57 | 52.69293 | -2.77920 | 21956 ft | 388 kts | 164° |
| 2026-04-29 07:57 | 52.66615 | -2.77217 | 22476 ft | 391 kts | 164° |
| 2026-04-29 07:57 | 52.63879 | -2.76500 | 22997 ft | 394 kts | 164° |
| 2026-04-29 07:58 | 52.61183 | -2.75880 | 23475 ft | 401 kts | 168° |
| 2026-04-29 07:58 | 52.58401 | -2.75895 | 23955 ft | 411 kts | 176° |
| 2026-04-29 07:58 | 52.55491 | -2.76233 | 24390 ft | 414 kts | 176° |
| 2026-04-29 07:58 | 52.52611 | -2.76539 | 24804 ft | 416 kts | 176° |
| 2026-04-29 07:59 | 52.49748 | -2.76807 | 25207 ft | 418 kts | 175° |
| 2026-04-29 07:59 | 52.46842 | -2.77062 | 25700 ft | 418 kts | 175° |
| 2026-04-29 07:59 | 52.43939 | -2.77311 | 26196 ft | 418 kts | 175° |
| 2026-04-29 07:59 | 52.41026 | -2.77558 | 26560 ft | 421 kts | 175° |
| 2026-04-29 08:00 | 52.38083 | -2.77806 | 26907 ft | 425 kts | 175° |
| 2026-04-29 08:00 | 52.35127 | -2.78057 | 27288 ft | 427 kts | 174° |
| 2026-04-29 08:00 | 52.32159 | -2.78312 | 27638 ft | 429 kts | 174° |
| 2026-04-29 08:00 | 52.29183 | -2.78568 | 28006 ft | 431 kts | 174° |
| 2026-04-29 08:01 | 52.26167 | -2.78828 | 28378 ft | 433 kts | 174° |
| 2026-04-29 08:01 | 52.23147 | -2.79087 | 28759 ft | 435 kts | 174° |
| 2026-04-29 08:01 | 52.20120 | -2.79347 | 29102 ft | 437 kts | 174° |
| 2026-04-29 08:01 | 52.17063 | -2.79609 | 29428 ft | 440 kts | 174° |
| 2026-04-29 08:02 | 52.14027 | -2.79869 | 29722 ft | 442 kts | 174° |
| 2026-04-29 08:02 | 52.10925 | -2.80135 | 30056 ft | 444 kts | 174° |
| 2026-04-29 08:02 | 52.07837 | -2.80398 | 30365 ft | 446 kts | 174° |
| 2026-04-29 08:02 | 52.04733 | -2.80662 | 30605 ft | 448 kts | 174° |
| 2026-04-29 08:03 | 52.01613 | -2.80927 | 30888 ft | 449 kts | 174° |
| 2026-04-29 08:03 | 51.98501 | -2.81195 | 31289 ft | 447 kts | 173° |
| 2026-04-29 08:03 | 51.96443 | -2.81372 | 31605 ft | 445 kts | 173° |
| 2026-04-29 08:03 | 51.93357 | -2.81636 | 31951 ft | 445 kts | 173° |
| 2026-04-29 08:04 | 51.90455 | -2.81881 | 32198 ft | 446 kts | 173° |
| 2026-04-29 08:04 | 51.87259 | -2.82149 | 32487 ft | 447 kts | 173° |
| 2026-04-29 08:04 | 51.84151 | -2.82492 | 32831 ft | 450 kts | 176° |
| 2026-04-29 08:04 | 51.81042 | -2.83079 | 33167 ft | 452 kts | 178° |
| 2026-04-29 08:05 | 51.77925 | -2.83777 | 33451 ft | 453 kts | 179° |
| 2026-04-29 08:05 | 51.74805 | -2.84502 | 33856 ft | 451 kts | 179° |
| 2026-04-29 08:05 | 51.71730 | -2.85205 | 34328 ft | 446 kts | 179° |
| 2026-04-29 08:05 | 51.68646 | -2.85884 | 34583 ft | 446 kts | 179° |
| 2026-04-29 08:06 | 51.65562 | -2.86542 | 34730 ft | 448 kts | 179° |
| 2026-04-29 08:06 | 51.62478 | -2.87189 | 34915 ft | 449 kts | 179° |
| 2026-04-29 08:06 | 51.59449 | -2.87826 | 35161 ft | 448 kts | 179° |
| 2026-04-29 08:06 | 51.56458 | -2.88456 | 35401 ft | 447 kts | 179° |
| 2026-04-29 08:07 | 51.53379 | -2.89105 | 35624 ft | 447 kts | 180° |
| 2026-04-29 08:07 | 51.50293 | -2.89759 | 35837 ft | 447 kts | 180° |
| 2026-04-29 08:07 | 51.47416 | -2.90370 | 36080 ft | 445 kts | 180° |
| 2026-04-29 08:07 | 51.44825 | -2.90921 | 36189 ft | 445 kts | 181° |
| 2026-04-29 08:08 | 51.41754 | -2.91570 | 36354 ft | 446 kts | 181° |
| 2026-04-29 08:08 | 51.39213 | -2.92107 | 36495 ft | 446 kts | 181° |
| 2026-04-29 08:08 | 51.36133 | -2.92757 | 36714 ft | 445 kts | 181° |
| 2026-04-29 08:08 | 51.33072 | -2.93403 | 36936 ft | 445 kts | 181° |
| 2026-04-29 08:09 | 51.28725 | -2.94317 | 37212 ft | 445 kts | 182° |
| 2026-04-29 08:09 | 51.22554 | -2.95610 | 37270 ft | 449 kts | 182° |
| 2026-04-29 08:10 | 51.18030 | -2.96558 | 37281 ft | 448 kts | 182° |
| 2026-04-29 08:10 | 51.11908 | -2.97842 | 37269 ft | 442 kts | 182° |
| 2026-04-29 08:11 | 51.06350 | -2.99001 | 37269 ft | 440 kts | 182° |
| 2026-04-29 08:11 | 51.00736 | -3.00168 | 37255 ft | 438 kts | 182° |
| 2026-04-29 08:12 | 50.94723 | -3.01414 | 37256 ft | 437 kts | 182° |
| 2026-04-29 08:12 | 50.88752 | -3.02647 | 37243 ft | 438 kts | 182° |
| 2026-04-29 08:13 | 50.83074 | -3.03817 | 37249 ft | 439 kts | 182° |
| 2026-04-29 08:13 | 50.77009 | -3.05065 | 37241 ft | 441 kts | 182° |
| 2026-04-29 08:14 | 50.70910 | -3.06316 | 37226 ft | 443 kts | 182° |
| 2026-04-29 08:14 | 50.64814 | -3.07564 | 37215 ft | 445 kts | 182° |
| 2026-04-29 08:15 | 50.58667 | -3.08820 | 37240 ft | 447 kts | 183° |
| 2026-04-29 08:15 | 50.52496 | -3.10077 | 37210 ft | 447 kts | 183° |
| 2026-04-29 08:16 | 50.46320 | -3.11333 | 37198 ft | 447 kts | 183° |
| 2026-04-29 08:16 | 50.40171 | -3.12579 | 37186 ft | 445 kts | 183° |
| 2026-04-29 08:17 | 50.34175 | -3.14848 | 37188 ft | 451 kts | 198° |
| 2026-04-29 08:17 | 50.28380 | -3.18603 | 37180 ft | 450 kts | 198° |
| 2026-04-29 08:18 | 50.22609 | -3.22361 | 37194 ft | 449 kts | 198° |
| 2026-04-29 08:18 | 50.16833 | -3.26044 | 37171 ft | 448 kts | 198° |
| 2026-04-29 08:19 | 50.11072 | -3.29715 | 37186 ft | 447 kts | 197° |
| 2026-04-29 08:19 | 50.05301 | -3.33308 | 37164 ft | 446 kts | 198° |
| 2026-04-29 08:20 | 49.99538 | -3.36852 | 37160 ft | 445 kts | 198° |
| 2026-04-29 08:20 | 49.93797 | -3.40516 | 37157 ft | 445 kts | 197° |
| 2026-04-29 08:21 | 49.88046 | -3.44057 | 37161 ft | 445 kts | 199° |
| 2026-04-29 08:21 | 49.82333 | -3.47744 | 37137 ft | 444 kts | 197° |
| 2026-04-29 08:22 | 49.76587 | -3.51201 | 37132 ft | 443 kts | 197° |
| 2026-04-29 08:22 | 49.70807 | -3.54449 | 37128 ft | 440 kts | 193° |
| 2026-04-29 08:23 | 49.64927 | -3.57034 | 37138 ft | 439 kts | 193° |
| 2026-04-29 08:23 | 49.59054 | -3.59523 | 37139 ft | 437 kts | 192° |
| 2026-04-29 08:24 | 49.53203 | -3.62068 | 37121 ft | 436 kts | 193° |
| 2026-04-29 08:24 | 49.47371 | -3.64620 | 37122 ft | 435 kts | 192° |
| 2026-04-29 08:25 | 49.41560 | -3.67155 | 37115 ft | 434 kts | 192° |
| 2026-04-29 08:25 | 49.35759 | -3.69665 | 37102 ft | 432 kts | 192° |
| 2026-04-29 08:26 | 49.29973 | -3.72170 | 37097 ft | 431 kts | 192° |
| 2026-04-29 08:26 | 49.24209 | -3.74698 | 37076 ft | 431 kts | 193° |
| 2026-04-29 08:27 | 49.18437 | -3.77142 | 37095 ft | 430 kts | 193° |
| 2026-04-29 08:27 | 49.12669 | -3.79703 | 37088 ft | 434 kts | 193° |
| 2026-04-29 08:28 | 49.06817 | -3.82215 | 37077 ft | 439 kts | 193° |
| 2026-04-29 08:28 | 49.00916 | -3.84721 | 37082 ft | 441 kts | 193° |
| 2026-04-29 08:29 | 48.95035 | -3.87179 | 37058 ft | 435 kts | 194° |
| 2026-04-29 08:29 | 48.89261 | -3.89682 | 37039 ft | 429 kts | 194° |
| 2026-04-29 08:30 | 48.80657 | -3.93477 | 37059 ft | 432 kts | 194° |
| 2026-04-29 08:31 | 48.74812 | -3.95876 | 37029 ft | 439 kts | 193° |
| 2026-04-29 08:31 | 48.68914 | -3.98315 | 36994 ft | 439 kts | 193° |
| 2026-04-29 08:32 | 48.63093 | -4.00804 | 36994 ft | 432 kts | 193° |
| 2026-04-29 08:32 | 48.57367 | -4.03316 | 36994 ft | 428 kts | 194° |
| 2026-04-29 08:33 | 48.51621 | -4.05778 | 37000 ft | 431 kts | 193° |
| 2026-04-29 08:33 | 48.45830 | -4.08045 | 37019 ft | 435 kts | 193° |
| 2026-04-29 08:34 | 48.39986 | -4.10500 | 37008 ft | 438 kts | 194° |
| 2026-04-29 08:34 | 48.34115 | -4.12990 | 36993 ft | 435 kts | 194° |
| 2026-04-29 08:35 | 48.28356 | -4.15412 | 36997 ft | 427 kts | 194° |
| 2026-04-29 08:35 | 48.22622 | -4.17801 | 36995 ft | 428 kts | 194° |
| 2026-04-29 08:36 | 48.16863 | -4.20191 | 37002 ft | 431 kts | 194° |
| 2026-04-29 08:36 | 48.11086 | -4.22583 | 36982 ft | 431 kts | 194° |
| 2026-04-29 08:37 | 48.05303 | -4.24973 | 36965 ft | 431 kts | 194° |
| 2026-04-29 08:37 | 47.99518 | -4.27359 | 36962 ft | 431 kts | 194° |
| 2026-04-29 08:38 | 47.93741 | -4.29735 | 36970 ft | 431 kts | 194° |
| 2026-04-29 08:38 | 47.87959 | -4.32108 | 36979 ft | 431 kts | 194° |
| 2026-04-29 08:39 | 47.82187 | -4.34471 | 36967 ft | 431 kts | 194° |
| 2026-04-29 08:39 | 47.76411 | -4.36831 | 36975 ft | 430 kts | 194° |
| 2026-04-29 08:40 | 47.70647 | -4.39180 | 36964 ft | 429 kts | 194° |
| 2026-04-29 08:40 | 47.64894 | -4.41520 | 36959 ft | 428 kts | 194° |
| 2026-04-29 08:41 | 47.59153 | -4.43849 | 36967 ft | 427 kts | 194° |
| 2026-04-29 08:41 | 47.53417 | -4.46172 | 36951 ft | 427 kts | 194° |
| 2026-04-29 08:42 | 47.47701 | -4.48503 | 36958 ft | 426 kts | 195° |
| 2026-04-29 08:42 | 47.41981 | -4.50800 | 36959 ft | 425 kts | 194° |
| 2026-04-29 08:43 | 47.36277 | -4.53079 | 36949 ft | 425 kts | 194° |
| 2026-04-29 08:43 | 47.30576 | -4.55365 | 36968 ft | 424 kts | 194° |
| 2026-04-29 08:44 | 47.24886 | -4.57644 | 36951 ft | 424 kts | 195° |
| 2026-04-29 08:44 | 47.19232 | -4.59903 | 36943 ft | 424 kts | 195° |
| 2026-04-29 08:45 | 47.13542 | -4.62172 | 36957 ft | 424 kts | 195° |
| 2026-04-29 08:45 | 47.07850 | -4.64431 | 36928 ft | 424 kts | 195° |
| 2026-04-29 08:46 | 47.02147 | -4.66632 | 36943 ft | 423 kts | 195° |
| 2026-04-29 08:46 | 46.96445 | -4.68812 | 36938 ft | 423 kts | 195° |
| 2026-04-29 08:47 | 46.90744 | -4.70991 | 36934 ft | 424 kts | 195° |
| 2026-04-29 08:47 | 46.85044 | -4.73170 | 36916 ft | 423 kts | 195° |
| 2026-04-29 08:48 | 46.79341 | -4.75347 | 36917 ft | 423 kts | 195° |
| 2026-04-29 08:48 | 46.73648 | -4.77516 | 36926 ft | 423 kts | 195° |
| 2026-04-29 08:49 | 46.68869 | -4.79333 | 36912 ft | 423 kts | 195° |
| 2026-04-29 08:49 | 46.63215 | -4.81478 | 36917 ft | 423 kts | 195° |
| 2026-04-29 08:50 | 46.57488 | -4.83646 | 36911 ft | 422 kts | 195° |
| 2026-04-29 08:50 | 46.51836 | -4.85781 | 36912 ft | 423 kts | 195° |
| 2026-04-29 08:51 | 46.46141 | -4.87928 | 36893 ft | 423 kts | 195° |
| 2026-04-29 08:51 | 46.40439 | -4.90073 | 36915 ft | 423 kts | 195° |
| 2026-04-29 08:52 | 46.34738 | -4.92213 | 36895 ft | 423 kts | 195° |
| 2026-04-29 08:52 | 46.28986 | -4.94367 | 36899 ft | 424 kts | 195° |
| 2026-04-29 08:53 | 46.23285 | -4.96497 | 36901 ft | 423 kts | 195° |
| 2026-04-29 08:53 | 46.17630 | -4.98606 | 36893 ft | 423 kts | 195° |
| 2026-04-29 08:54 | 46.11942 | -5.00722 | 36892 ft | 422 kts | 195° |
| 2026-04-29 08:54 | 46.06265 | -5.02830 | 36890 ft | 421 kts | 195° |
| 2026-04-29 08:55 | 46.00653 | -5.04910 | 36882 ft | 419 kts | 195° |
| 2026-04-29 08:55 | 45.95006 | -5.06997 | 36891 ft | 418 kts | 195° |
| 2026-04-29 08:56 | 45.89388 | -5.09071 | 36885 ft | 416 kts | 195° |
| 2026-04-29 08:56 | 45.83780 | -5.11136 | 36869 ft | 415 kts | 195° |
| 2026-04-29 08:57 | 45.78192 | -5.13189 | 36875 ft | 415 kts | 195° |
| 2026-04-29 08:57 | 45.72601 | -5.15239 | 36877 ft | 414 kts | 195° |
| 2026-04-29 08:58 | 45.67019 | -5.17282 | 36883 ft | 414 kts | 195° |
| 2026-04-29 08:58 | 45.61431 | -5.19322 | 36872 ft | 414 kts | 195° |
| 2026-04-29 08:59 | 45.55844 | -5.21359 | 36871 ft | 415 kts | 195° |
| 2026-04-29 08:59 | 45.50248 | -5.23394 | 36871 ft | 415 kts | 195° |
| 2026-04-29 09:00 | 45.44648 | -5.25427 | 36854 ft | 416 kts | 195° |
| 2026-04-29 09:00 | 45.39046 | -5.27455 | 36868 ft | 416 kts | 195° |
| 2026-04-29 09:01 | 45.33438 | -5.29483 | 36872 ft | 416 kts | 195° |
| 2026-04-29 09:01 | 45.27830 | -5.31505 | 36868 ft | 416 kts | 195° |
| 2026-04-29 09:02 | 45.22221 | -5.33524 | 36861 ft | 415 kts | 195° |
| 2026-04-29 09:02 | 45.16617 | -5.35538 | 36863 ft | 415 kts | 195° |
| 2026-04-29 09:03 | 45.11028 | -5.37541 | 36862 ft | 415 kts | 195° |
| 2026-04-29 09:03 | 45.05425 | -5.39546 | 36855 ft | 415 kts | 195° |
| 2026-04-29 09:04 | 44.99833 | -5.41542 | 36862 ft | 415 kts | 195° |
| 2026-04-29 09:04 | 44.94236 | -5.43537 | 36858 ft | 414 kts | 195° |
| 2026-04-29 09:05 | 44.88647 | -5.45524 | 36859 ft | 414 kts | 195° |
| 2026-04-29 09:05 | 44.83054 | -5.47509 | 36851 ft | 414 kts | 195° |
| 2026-04-29 09:06 | 44.77462 | -5.49490 | 36859 ft | 414 kts | 195° |
| 2026-04-29 09:06 | 44.71872 | -5.51467 | 36859 ft | 414 kts | 195° |
| 2026-04-29 09:07 | 44.66285 | -5.53438 | 36859 ft | 414 kts | 195° |
| 2026-04-29 09:07 | 44.60706 | -5.55479 | 36852 ft | 414 kts | 200° |
| 2026-04-29 09:08 | 44.55424 | -5.58659 | 36851 ft | 413 kts | 205° |
| 2026-04-29 09:08 | 44.50212 | -5.61932 | 36852 ft | 413 kts | 205° |
| 2026-04-29 09:09 | 44.44919 | -5.65224 | 36849 ft | 413 kts | 205° |
| 2026-04-29 09:09 | 44.39690 | -5.68450 | 36854 ft | 414 kts | 204° |
| 2026-04-29 09:10 | 44.34419 | -5.71689 | 36867 ft | 414 kts | 204° |
| 2026-04-29 09:10 | 44.29143 | -5.74924 | 36853 ft | 414 kts | 204° |
| 2026-04-29 09:11 | 44.23863 | -5.78154 | 36849 ft | 414 kts | 204° |
| 2026-04-29 09:11 | 44.18580 | -5.81380 | 36855 ft | 415 kts | 204° |
| 2026-04-29 09:12 | 44.13300 | -5.84598 | 36862 ft | 415 kts | 204° |
| 2026-04-29 09:12 | 44.08014 | -5.87813 | 36859 ft | 415 kts | 204° |
| 2026-04-29 09:13 | 44.02724 | -5.91025 | 36852 ft | 415 kts | 204° |
| 2026-04-29 09:13 | 43.97433 | -5.94231 | 36853 ft | 415 kts | 204° |
| 2026-04-29 09:14 | 43.92139 | -5.97433 | 36858 ft | 415 kts | 204° |
| 2026-04-29 09:14 | 43.86849 | -6.00625 | 36841 ft | 415 kts | 204° |
| 2026-04-29 09:15 | 43.81559 | -6.03812 | 36849 ft | 414 kts | 204° |
| 2026-04-29 09:15 | 43.76278 | -6.06987 | 36849 ft | 414 kts | 204° |
| 2026-04-29 09:16 | 43.70995 | -6.10157 | 36845 ft | 414 kts | 204° |
| 2026-04-29 09:16 | 43.65714 | -6.13320 | 36844 ft | 414 kts | 204° |
| 2026-04-29 09:17 | 43.60428 | -6.16480 | 36851 ft | 414 kts | 204° |
| 2026-04-29 09:17 | 43.55216 | -6.19590 | 36854 ft | 415 kts | 204° |
| 2026-04-29 09:18 | 43.49879 | -6.22768 | 36848 ft | 415 kts | 204° |
| 2026-04-29 09:18 | 43.44606 | -6.25901 | 36840 ft | 415 kts | 203° |
| 2026-04-29 09:19 | 43.39305 | -6.29047 | 36839 ft | 415 kts | 203° |
| 2026-04-29 09:19 | 43.34019 | -6.32176 | 36842 ft | 414 kts | 203° |
| 2026-04-29 09:20 | 43.28726 | -6.35304 | 36842 ft | 414 kts | 203° |
| 2026-04-29 09:20 | 43.23433 | -6.38425 | 36827 ft | 414 kts | 203° |
| 2026-04-29 09:21 | 43.18149 | -6.41537 | 36837 ft | 413 kts | 203° |
| 2026-04-29 09:21 | 43.12864 | -6.44642 | 36829 ft | 413 kts | 203° |
| 2026-04-29 09:22 | 43.07582 | -6.47740 | 36835 ft | 414 kts | 203° |
| 2026-04-29 09:22 | 43.02275 | -6.50847 | 36817 ft | 415 kts | 203° |
| 2026-04-29 09:23 | 42.96961 | -6.53954 | 36828 ft | 415 kts | 203° |
| 2026-04-29 09:23 | 42.91641 | -6.57056 | 36816 ft | 416 kts | 202° |
| 2026-04-29 09:24 | 42.86313 | -6.60157 | 36822 ft | 417 kts | 202° |
| 2026-04-29 09:24 | 42.80988 | -6.63250 | 36808 ft | 418 kts | 202° |
| 2026-04-29 09:25 | 42.75632 | -6.66356 | 36817 ft | 418 kts | 202° |
| 2026-04-29 09:25 | 42.70281 | -6.69453 | 36822 ft | 418 kts | 202° |
| 2026-04-29 09:26 | 42.64918 | -6.72551 | 36819 ft | 419 kts | 202° |
| 2026-04-29 09:26 | 42.59552 | -6.75646 | 36821 ft | 419 kts | 202° |
| 2026-04-29 09:27 | 42.54187 | -6.78734 | 36813 ft | 419 kts | 202° |
| 2026-04-29 09:27 | 42.48816 | -6.81819 | 36808 ft | 420 kts | 202° |
| 2026-04-29 09:28 | 42.43441 | -6.84901 | 36833 ft | 420 kts | 202° |
| 2026-04-29 09:28 | 42.38060 | -6.87981 | 36802 ft | 420 kts | 202° |
| 2026-04-29 09:29 | 42.32689 | -6.91049 | 36812 ft | 419 kts | 202° |
| 2026-04-29 09:29 | 42.24638 | -6.95638 | 36814 ft | 419 kts | 202° |
| 2026-04-29 09:30 | 42.19270 | -6.98691 | 36801 ft | 418 kts | 202° |
| 2026-04-29 09:30 | 42.13964 | -7.01702 | 36812 ft | 418 kts | 202° |
| 2026-04-29 09:31 | 42.08597 | -7.04743 | 36815 ft | 419 kts | 202° |
| 2026-04-29 09:31 | 42.03137 | -7.07460 | 36804 ft | 419 kts | 192° |
| 2026-04-29 09:32 | 41.98331 | -7.08258 | 36813 ft | 419 kts | 186° |
| 2026-04-29 09:32 | 41.91579 | -7.09162 | 36812 ft | 420 kts | 186° |
| 2026-04-29 09:33 | 41.85759 | -7.09976 | 36803 ft | 421 kts | 186° |
| 2026-04-29 09:33 | 41.80871 | -7.10675 | 36810 ft | 422 kts | 186° |
| 2026-04-29 09:34 | 41.75040 | -7.11514 | 36802 ft | 422 kts | 186° |
| 2026-04-29 09:34 | 41.69197 | -7.12355 | 36812 ft | 422 kts | 186° |
| 2026-04-29 09:35 | 41.63353 | -7.13194 | 36811 ft | 422 kts | 186° |
| 2026-04-29 09:35 | 41.57505 | -7.14031 | 36810 ft | 423 kts | 186° |
| 2026-04-29 09:36 | 41.51658 | -7.14867 | 36806 ft | 423 kts | 187° |
| 2026-04-29 09:36 | 41.45800 | -7.15703 | 36832 ft | 426 kts | 186° |
| 2026-04-29 09:37 | 41.39884 | -7.16546 | 36807 ft | 427 kts | 187° |
| 2026-04-29 09:37 | 41.33989 | -7.17384 | 36809 ft | 425 kts | 187° |
| 2026-04-29 09:38 | 41.28128 | -7.18213 | 36815 ft | 423 kts | 187° |
| 2026-04-29 09:38 | 41.22297 | -7.19033 | 36812 ft | 421 kts | 187° |
| 2026-04-29 09:39 | 41.16450 | -7.19864 | 36804 ft | 424 kts | 187° |
| 2026-04-29 09:39 | 41.10597 | -7.20693 | 36804 ft | 422 kts | 187° |
| 2026-04-29 09:40 | 41.04800 | -7.21511 | 36820 ft | 421 kts | 187° |
| 2026-04-29 09:40 | 40.98982 | -7.22329 | 36825 ft | 421 kts | 187° |
| 2026-04-29 09:41 | 40.93147 | -7.23148 | 36833 ft | 422 kts | 187° |
| 2026-04-29 09:41 | 40.87306 | -7.23967 | 36830 ft | 423 kts | 188° |
| 2026-04-29 09:42 | 40.81453 | -7.24786 | 36832 ft | 424 kts | 188° |
| 2026-04-29 09:42 | 40.75563 | -7.25609 | 36839 ft | 426 kts | 188° |
| 2026-04-29 09:43 | 40.69663 | -7.26431 | 36834 ft | 428 kts | 188° |
| 2026-04-29 09:43 | 40.63732 | -7.27256 | 36836 ft | 429 kts | 188° |
| 2026-04-29 09:44 | 40.57796 | -7.28081 | 36839 ft | 430 kts | 188° |
| 2026-04-29 09:44 | 40.51803 | -7.28912 | 36833 ft | 430 kts | 188° |
| 2026-04-29 09:45 | 40.45900 | -7.29729 | 36847 ft | 430 kts | 188° |
| 2026-04-29 09:45 | 40.39954 | -7.30550 | 36840 ft | 429 kts | 188° |
| 2026-04-29 09:46 | 40.34018 | -7.31369 | 36843 ft | 428 kts | 188° |
| 2026-04-29 09:46 | 40.28101 | -7.32183 | 36842 ft | 427 kts | 188° |
| 2026-04-29 09:47 | 40.22191 | -7.32995 | 36836 ft | 426 kts | 188° |
| 2026-04-29 09:47 | 40.16303 | -7.33803 | 36850 ft | 425 kts | 188° |
| 2026-04-29 09:48 | 40.10418 | -7.34609 | 36855 ft | 425 kts | 188° |
| 2026-04-29 09:48 | 40.04544 | -7.35413 | 36853 ft | 425 kts | 188° |
| 2026-04-29 09:49 | 39.98662 | -7.36215 | 36844 ft | 425 kts | 189° |
| 2026-04-29 09:49 | 39.92779 | -7.37017 | 36862 ft | 425 kts | 189° |
| 2026-04-29 09:50 | 39.86884 | -7.37819 | 36864 ft | 427 kts | 189° |
| 2026-04-29 09:50 | 39.80967 | -7.38623 | 36865 ft | 428 kts | 189° |
| 2026-04-29 09:51 | 39.75028 | -7.39428 | 36853 ft | 429 kts | 189° |
| 2026-04-29 09:51 | 39.69079 | -7.40232 | 36863 ft | 430 kts | 189° |
| 2026-04-29 09:52 | 39.63124 | -7.41036 | 36857 ft | 430 kts | 189° |
| 2026-04-29 09:52 | 39.57168 | -7.41839 | 36866 ft | 431 kts | 189° |
| 2026-04-29 09:53 | 39.51205 | -7.42642 | 36864 ft | 430 kts | 189° |
| 2026-04-29 09:53 | 39.45261 | -7.43440 | 36865 ft | 429 kts | 189° |
| 2026-04-29 09:54 | 39.39336 | -7.44235 | 36869 ft | 427 kts | 189° |
| 2026-04-29 09:54 | 39.33426 | -7.45026 | 36851 ft | 427 kts | 190° |
| 2026-04-29 09:55 | 39.27538 | -7.45813 | 36870 ft | 425 kts | 190° |
| 2026-04-29 09:55 | 39.21660 | -7.46598 | 36873 ft | 424 kts | 190° |
| 2026-04-29 09:56 | 39.15765 | -7.47385 | 36134 ft | 428 kts | 190° |
| 2026-04-29 09:56 | 39.12826 | -7.47774 | 35743 ft | 424 kts | 191° |
| 2026-04-29 09:56 | 39.09902 | -7.48162 | 35326 ft | 420 kts | 191° |
| 2026-04-29 09:57 | 39.07018 | -7.48589 | 34929 ft | 415 kts | 193° |
| 2026-04-29 09:57 | 39.04157 | -7.48997 | 34548 ft | 413 kts | 192° |
| 2026-04-29 09:57 | 39.01310 | -7.49358 | 34161 ft | 410 kts | 192° |
| 2026-04-29 09:57 | 38.98483 | -7.49711 | 33758 ft | 406 kts | 192° |
| 2026-04-29 09:58 | 38.95684 | -7.50064 | 33324 ft | 403 kts | 192° |
| 2026-04-29 09:58 | 38.92901 | -7.50421 | 32916 ft | 399 kts | 192° |
| 2026-04-29 09:58 | 38.90151 | -7.50778 | 32533 ft | 395 kts | 192° |
| 2026-04-29 09:58 | 38.87430 | -7.51133 | 32120 ft | 391 kts | 193° |
| 2026-04-29 09:59 | 38.84762 | -7.51572 | 31815 ft | 382 kts | 197° |
| 2026-04-29 09:59 | 38.82080 | -7.51953 | 31384 ft | 383 kts | 193° |
| 2026-04-29 09:59 | 38.79470 | -7.52191 | 31090 ft | 379 kts | 193° |
| 2026-04-29 09:59 | 38.76825 | -7.52478 | 30720 ft | 375 kts | 194° |
| 2026-04-29 10:00 | 38.74277 | -7.52808 | 30370 ft | 371 kts | 194° |
| 2026-04-29 10:00 | 38.71692 | -7.53161 | 30022 ft | 367 kts | 194° |
| 2026-04-29 10:00 | 38.69167 | -7.53508 | 29629 ft | 363 kts | 194° |
| 2026-04-29 10:00 | 38.66664 | -7.53849 | 29265 ft | 359 kts | 194° |
| 2026-04-29 10:01 | 38.64198 | -7.54180 | 28883 ft | 355 kts | 195° |
| 2026-04-29 10:01 | 38.61755 | -7.54504 | 28545 ft | 350 kts | 195° |
| 2026-04-29 10:01 | 38.59341 | -7.54823 | 28182 ft | 347 kts | 195° |
| 2026-04-29 10:01 | 38.56949 | -7.55138 | 27846 ft | 344 kts | 195° |
| 2026-04-29 10:02 | 38.54581 | -7.55450 | 27489 ft | 341 kts | 195° |
| 2026-04-29 10:02 | 38.52263 | -7.55754 | 27146 ft | 338 kts | 194° |
| 2026-04-29 10:02 | 38.49942 | -7.56058 | 26824 ft | 335 kts | 194° |
| 2026-04-29 10:02 | 38.47628 | -7.56361 | 26477 ft | 332 kts | 194° |
| 2026-04-29 10:03 | 38.45339 | -7.56660 | 26141 ft | 329 kts | 194° |
| 2026-04-29 10:03 | 38.43072 | -7.56956 | 25813 ft | 327 kts | 194° |
| 2026-04-29 10:03 | 38.40789 | -7.57254 | 25451 ft | 324 kts | 194° |
| 2026-04-29 10:03 | 38.38550 | -7.57546 | 25150 ft | 321 kts | 195° |
| 2026-04-29 10:04 | 38.36365 | -7.57831 | 24828 ft | 320 kts | 195° |
| 2026-04-29 10:04 | 38.34158 | -7.58119 | 24504 ft | 318 kts | 194° |
| 2026-04-29 10:04 | 38.31972 | -7.58404 | 24185 ft | 315 kts | 194° |
| 2026-04-29 10:04 | 38.29795 | -7.58687 | 23875 ft | 313 kts | 194° |
| 2026-04-29 10:05 | 38.27635 | -7.58968 | 23556 ft | 312 kts | 194° |
| 2026-04-29 10:05 | 38.25481 | -7.59249 | 23192 ft | 310 kts | 194° |
| 2026-04-29 10:05 | 38.23337 | -7.59527 | 22835 ft | 308 kts | 194° |
| 2026-04-29 10:05 | 38.21213 | -7.59803 | 22518 ft | 306 kts | 194° |
| 2026-04-29 10:06 | 38.19107 | -7.60076 | 22205 ft | 303 kts | 194° |
| 2026-04-29 10:06 | 38.17015 | -7.60347 | 21889 ft | 301 kts | 193° |
| 2026-04-29 10:06 | 38.14941 | -7.60616 | 21569 ft | 298 kts | 193° |
| 2026-04-29 10:06 | 38.12868 | -7.60842 | 21161 ft | 301 kts | 191° |
| 2026-04-29 10:07 | 38.10781 | -7.60976 | 20825 ft | 300 kts | 190° |
| 2026-04-29 10:07 | 38.08703 | -7.61085 | 20492 ft | 298 kts | 189° |
| 2026-04-29 10:07 | 38.06643 | -7.61188 | 20181 ft | 296 kts | 189° |
| 2026-04-29 10:07 | 38.04588 | -7.61295 | 19872 ft | 294 kts | 189° |
| 2026-04-29 10:08 | 38.02549 | -7.61405 | 19564 ft | 292 kts | 189° |
| 2026-04-29 10:08 | 38.00523 | -7.61518 | 19265 ft | 291 kts | 189° |
| 2026-04-29 10:08 | 37.98508 | -7.61632 | 18960 ft | 289 kts | 189° |
| 2026-04-29 10:08 | 37.96504 | -7.61747 | 18668 ft | 287 kts | 189° |
| 2026-04-29 10:09 | 37.94513 | -7.61863 | 18370 ft | 286 kts | 188° |
| 2026-04-29 10:09 | 37.92526 | -7.61979 | 18021 ft | 285 kts | 189° |
| 2026-04-29 10:09 | 37.90552 | -7.62094 | 17705 ft | 283 kts | 189° |
| 2026-04-29 10:09 | 37.88595 | -7.62209 | 17393 ft | 281 kts | 189° |
| 2026-04-29 10:10 | 37.86655 | -7.62323 | 17103 ft | 279 kts | 189° |
| 2026-04-29 10:10 | 37.84713 | -7.62437 | 16802 ft | 277 kts | 189° |
| 2026-04-29 10:10 | 37.82791 | -7.62550 | 16503 ft | 276 kts | 188° |
| 2026-04-29 10:10 | 37.80878 | -7.62663 | 16207 ft | 274 kts | 188° |
| 2026-04-29 10:11 | 37.78980 | -7.62774 | 15911 ft | 273 kts | 188° |
| 2026-04-29 10:11 | 37.77091 | -7.62885 | 15630 ft | 271 kts | 188° |
| 2026-04-29 10:11 | 37.75212 | -7.62996 | 15349 ft | 270 kts | 188° |
| 2026-04-29 10:11 | 37.73335 | -7.63106 | 15053 ft | 269 kts | 188° |
| 2026-04-29 10:12 | 37.71469 | -7.63216 | 14758 ft | 269 kts | 188° |
| 2026-04-29 10:12 | 37.69605 | -7.63326 | 14459 ft | 268 kts | 188° |
| 2026-04-29 10:12 | 37.67740 | -7.63436 | 14173 ft | 268 kts | 188° |
| 2026-04-29 10:12 | 37.65908 | -7.63544 | 13884 ft | 267 kts | 187° |
| 2026-04-29 10:13 | 37.64057 | -7.63652 | 13600 ft | 266 kts | 187° |
| 2026-04-29 10:13 | 37.62208 | -7.63761 | 13291 ft | 266 kts | 187° |
| 2026-04-29 10:13 | 37.60363 | -7.63869 | 12979 ft | 265 kts | 187° |
| 2026-04-29 10:13 | 37.58529 | -7.63976 | 12681 ft | 263 kts | 187° |
| 2026-04-29 10:14 | 37.56702 | -7.64083 | 12397 ft | 262 kts | 187° |
| 2026-04-29 10:14 | 37.54887 | -7.64189 | 12120 ft | 261 kts | 186° |
| 2026-04-29 10:14 | 37.53069 | -7.64295 | 11827 ft | 261 kts | 186° |
| 2026-04-29 10:14 | 37.51258 | -7.64401 | 11543 ft | 260 kts | 186° |
| 2026-04-29 10:15 | 37.49452 | -7.64506 | 11257 ft | 260 kts | 186° |
| 2026-04-29 10:15 | 37.48232 | -7.64577 | 11059 ft | 259 kts | 186° |
| 2026-04-29 10:15 | 37.46439 | -7.64682 | 10772 ft | 258 kts | 186° |
| 2026-04-29 10:15 | 37.44651 | -7.64786 | 10492 ft | 257 kts | 186° |
| 2026-04-29 10:16 | 37.42872 | -7.64890 | 10217 ft | 256 kts | 186° |
| 2026-04-29 10:16 | 37.41095 | -7.64993 | 9942 ft | 256 kts | 186° |
| 2026-04-29 10:16 | 37.39316 | -7.65097 | 9638 ft | 256 kts | 186° |
| 2026-04-29 10:16 | 37.37541 | -7.65200 | 9334 ft | 255 kts | 186° |
| 2026-04-29 10:17 | 37.35773 | -7.65303 | 9046 ft | 254 kts | 186° |
| 2026-04-29 10:17 | 37.34013 | -7.65406 | 8766 ft | 253 kts | 185° |
| 2026-04-29 10:17 | 37.32256 | -7.65508 | 8474 ft | 253 kts | 185° |
| 2026-04-29 10:17 | 37.30515 | -7.65609 | 8200 ft | 251 kts | 185° |
| 2026-04-29 10:18 | 37.28779 | -7.65709 | 7921 ft | 250 kts | 185° |
| 2026-04-29 10:18 | 37.27044 | -7.65810 | 7647 ft | 249 kts | 185° |
| 2026-04-29 10:18 | 37.25322 | -7.65910 | 7377 ft | 248 kts | 185° |
| 2026-04-29 10:18 | 37.23604 | -7.66009 | 7121 ft | 247 kts | 185° |
| 2026-04-29 10:19 | 37.21886 | -7.66109 | 6846 ft | 248 kts | 185° |
| 2026-04-29 10:19 | 37.20162 | -7.66209 | 6580 ft | 249 kts | 185° |
| 2026-04-29 10:19 | 37.18421 | -7.66311 | 6295 ft | 250 kts | 185° |
| 2026-04-29 10:19 | 37.16678 | -7.66412 | 5991 ft | 251 kts | 185° |
| 2026-04-29 10:20 | 37.14941 | -7.66509 | 5702 ft | 251 kts | 185° |
| 2026-04-29 10:20 | 37.13191 | -7.66610 | 5436 ft | 250 kts | 185° |
| 2026-04-29 10:20 | 37.11474 | -7.66709 | 5303 ft | 245 kts | 185° |
| 2026-04-29 10:20 | 37.09790 | -7.66807 | 5179 ft | 238 kts | 185° |
| 2026-04-29 10:21 | 37.08159 | -7.66901 | 5073 ft | 231 kts | 185° |
| 2026-04-29 10:21 | 37.06590 | -7.66991 | 5052 ft | 221 kts | 185° |
| 2026-04-29 10:21 | 37.05082 | -7.67077 | 4998 ft | 211 kts | 186° |
| 2026-04-29 10:21 | 37.03652 | -7.67165 | 4894 ft | 201 kts | 185° |
| 2026-04-29 10:22 | 37.02288 | -7.67241 | 4731 ft | 192 kts | 185° |
| 2026-04-29 10:22 | 37.00998 | -7.67314 | 4564 ft | 181 kts | 185° |
| 2026-04-29 10:22 | 36.99750 | -7.67388 | 4362 ft | 176 kts | 187° |
| 2026-04-29 10:22 | 36.98636 | -7.67911 | 4159 ft | 173 kts | 220° |
| 2026-04-29 10:23 | 36.98009 | -7.69136 | 4144 ft | 169 kts | 262° |
| 2026-04-29 10:23 | 36.98035 | -7.70730 | 3970 ft | 193 kts | 270° |
| 2026-04-29 10:23 | 36.98122 | -7.72397 | 3733 ft | 191 kts | 273° |
| 2026-04-29 10:23 | 36.98294 | -7.74024 | 3470 ft | 185 kts | 276° |
| 2026-04-29 10:24 | 36.98498 | -7.75581 | 3230 ft | 178 kts | 276° |
| 2026-04-29 10:24 | 36.98705 | -7.77079 | 3000 ft | 172 kts | 277° |
| 2026-04-29 10:24 | 36.98907 | -7.78529 | 2777 ft | 167 kts | 277° |
| 2026-04-29 10:24 | 36.99105 | -7.79935 | 2546 ft | 162 kts | 276° |
| 2026-04-29 10:25 | 36.99296 | -7.81316 | 2335 ft | 161 kts | 277° |
| 2026-04-29 10:25 | 36.99491 | -7.82710 | 2133 ft | 164 kts | 276° |
| 2026-04-29 10:25 | 36.99685 | -7.84100 | 1883 ft | 159 kts | 277° |
| 2026-04-29 10:25 | 36.99871 | -7.85413 | 1701 ft | 146 kts | 277° |
| 2026-04-29 10:26 | 37.00046 | -7.86666 | 1475 ft | 146 kts | 277° |
| 2026-04-29 10:26 | 37.00215 | -7.87876 | 1302 ft | 143 kts | 277° |
| 2026-04-29 10:26 | 37.00388 | -7.89100 | 1106 ft | 139 kts | 277° |
| 2026-04-29 10:26 | 37.00554 | -7.90296 | 933 ft | 140 kts | 278° |
| 2026-04-29 10:27 | 37.00891 | -7.92696 | 556 ft | 140 kts | 277° |
| 2026-04-29 10:27 | 37.01058 | -7.93878 | 358 ft | 138 kts | 278° |
| 2026-04-29 10:27 | 37.01229 | -7.95028 | 173 ft | 135 kts | 278° |
| 2026-04-29 10:28 | 37.01393 | -7.96202 | 28 ft | 134 kts | 278° |
| 2026-04-29 10:28 | 37.01523 | -7.97161 | 20 ft | 82 kts | 279° |
| 2026-04-29 10:28 | 37.01578 | -7.97600 | 18 ft | 21 kts | 283° |
| 2026-04-29 10:28 | 37.01606 | -7.97773 | 18 ft | 20 kts | 285° |
| 2026-04-29 10:29 | 37.01674 | -7.97854 | 19 ft | 14 kts | 6° |
| 2026-04-29 10:29 | 37.01737 | -7.97776 | 19 ft | 13 kts | 62° |
| 2026-04-29 10:29 | 37.01766 | -7.97671 | 19 ft | 13 kts | 81° |
| 2026-04-29 10:29 | 37.01766 | -7.97562 | 19 ft | 12 kts | 98° |
| 2026-04-29 10:30 | 37.01751 | -7.97458 | 19 ft | 12 kts | 100° |
| 2026-04-29 10:30 | 37.01736 | -7.97356 | 19 ft | 12 kts | 100° |
| 2026-04-29 10:30 | 37.01722 | -7.97257 | 19 ft | 11 kts | 100° |
| 2026-04-29 10:30 | 37.01708 | -7.97160 | 19 ft | 12 kts | 101° |
| 2026-04-29 10:31 | 37.01690 | -7.97034 | 19 ft | 17 kts | 100° |
| 2026-04-29 10:31 | 37.01698 | -7.96920 | 20 ft | 13 kts | 41° |
| 2026-04-29 10:31 | 37.01783 | -7.96891 | 19 ft | 13 kts | 10° |
| 2026-04-29 10:31 | 37.01825 | -7.96810 | 19 ft | 12 kts | 95° |
| 2026-04-29 10:32 | 37.01811 | -7.96705 | 19 ft | 12 kts | 100° |
| 2026-04-29 10:32 | 37.01815 | -7.96641 | 20 ft | 6 kts | 31° |
| 2026-04-29 10:32 | 37.01854 | -7.96629 | 19 ft | 5 kts | 9° |
| 2026-04-29 10:32 | 37.01879 | -7.96624 | 21 ft | 2 kts | 10° |
| 2026-04-29 10:33 | 37.01886 | -7.96622 | 20 ft | 1 kts | 10° |